createdAt,value
2022-11-08T00:01:00.566Z,16.35
2022-11-08T00:06:20.808Z,13.05
2022-11-08T00:11:40.935Z,14.43
2022-11-08T00:16:42.359Z,11.20
2022-11-08T00:21:43.756Z,14.77
2022-11-08T00:26:45.191Z,16.38
2022-11-08T00:31:46.623Z,14.82
2022-11-08T00:36:48.059Z,17.60
2022-11-08T00:41:49.548Z,16.77
2022-11-08T00:46:51.183Z,18.25
2022-11-08T00:51:52.662Z,16.75
2022-11-08T00:56:54.130Z,17.08
2022-11-08T01:01:55.703Z,12.88
2022-11-08T01:06:57.164Z,13.50
2022-11-08T01:11:58.624Z,15.30
2022-11-08T01:17:00.052Z,11.65
2022-11-08T01:22:01.462Z,15.80
2022-11-08T01:27:02.876Z,13.25
2022-11-08T01:32:04.468Z,13.27
2022-11-08T01:37:05.880Z,12.55
2022-11-08T01:42:07.340Z,13.93
2022-11-08T01:47:08.942Z,11.43
2022-11-08T01:52:13.407Z,14.40
2022-11-08T01:57:21.059Z,14.35
2022-11-08T02:02:22.653Z,13.40
2022-11-08T02:07:24.810Z,11.27
2022-11-08T02:12:27.810Z,12.77
2022-11-08T02:17:29.691Z,11.93
2022-11-08T02:22:35.318Z,12.55
2022-11-08T02:27:36.752Z,12.35
2022-11-08T02:32:39.749Z,14.35
2022-11-08T02:37:42.712Z,13.20
2022-11-08T02:42:44.149Z,15.70
2022-11-08T02:47:45.537Z,12.55
2022-11-08T02:52:46.949Z,16.73
2022-11-08T02:57:48.360Z,14.70
2022-11-08T03:02:57.273Z,12.13
2022-11-08T03:07:58.927Z,12.93
2022-11-08T03:13:03.372Z,14.23
2022-11-08T03:18:04.867Z,14.23
2022-11-08T03:23:07.135Z,13.93
2022-11-08T03:28:09.234Z,14.32
2022-11-08T03:33:11.143Z,12.20
2022-11-08T03:38:12.589Z,10.75
2022-11-08T03:43:14.488Z,14.23
2022-11-08T03:48:16.098Z,15.63
2022-11-08T03:53:17.892Z,11.90
2022-11-08T03:58:19.553Z,17.08
2022-11-08T04:03:21.159Z,12.18
2022-11-08T04:08:22.644Z,14.35
2022-11-08T04:13:42.630Z,12.40
2022-11-08T04:19:02.744Z,11.35
2022-11-08T04:24:04.253Z,11.60
2022-11-08T04:29:05.647Z,9.70
2022-11-08T04:34:07.215Z,11.75
2022-11-08T04:39:08.648Z,11.75
2022-11-08T04:44:10.392Z,11.80
2022-11-08T04:49:11.840Z,12.13
2022-11-08T04:54:13.250Z,13.77
2022-11-08T04:59:14.704Z,11.48
2022-11-08T05:04:16.129Z,11.30
2022-11-08T05:09:17.537Z,11.82
2022-11-08T05:14:19.048Z,12.63
2022-11-08T05:19:40.429Z,16.17
2022-11-08T05:24:41.848Z,14.40
2022-11-08T05:29:43.263Z,17.73
2022-11-08T05:34:44.679Z,27.17
2022-11-08T05:39:46.076Z,18.85
2022-11-08T05:44:47.482Z,21.13
2022-11-08T05:49:49.259Z,18.35
2022-11-08T05:54:50.665Z,16.10
2022-11-08T05:59:52.089Z,13.60
2022-11-08T06:04:53.487Z,17.23
2022-11-08T06:09:54.900Z,17.17
2022-11-08T06:14:56.353Z,14.38
2022-11-08T06:19:57.756Z,14.80
2022-11-08T06:24:59.602Z,12.38
2022-11-08T06:30:01.020Z,16.90
2022-11-08T06:35:02.494Z,15.52
2022-11-08T06:40:04.202Z,18.58
2022-11-08T06:45:06.139Z,16.00
2022-11-08T06:50:07.693Z,17.70
2022-11-08T06:55:09.241Z,15.95
2022-11-08T07:00:11.364Z,22.42
2022-11-08T07:05:13.014Z,28.60
2022-11-08T07:10:14.426Z,25.00
2022-11-08T07:15:16.120Z,21.77
2022-11-08T07:20:17.626Z,18.83
2022-11-08T07:25:19.109Z,22.00
2022-11-08T07:30:20.623Z,23.90
2022-11-08T07:35:22.610Z,19.33
2022-11-08T07:40:24.715Z,20.75
2022-11-08T07:45:27.469Z,18.38
2022-11-08T07:50:29.403Z,19.13
2022-11-08T07:55:30.852Z,17.02
2022-11-08T08:00:36.307Z,17.98
2022-11-08T08:05:41.854Z,18.33
2022-11-08T08:10:43.257Z,17.70
2022-11-08T08:15:44.681Z,13.48
2022-11-08T08:20:46.969Z,15.07
2022-11-08T08:25:48.461Z,12.23
2022-11-08T08:30:49.912Z,6.53
2022-11-08T08:35:55.246Z,9.85
2022-11-08T08:40:56.948Z,6.82
2022-11-08T08:46:03.182Z,6.30
2022-11-08T08:51:04.830Z,7.68
2022-11-08T08:56:07.230Z,6.97
2022-11-08T09:06:33.198Z,7.55
2022-11-08T09:11:34.866Z,12.55
2022-11-08T09:16:36.324Z,5.85
2022-11-08T09:21:38.031Z,8.38
2022-11-08T09:26:39.486Z,7.53
2022-11-08T09:31:41.267Z,6.30
2022-11-08T09:36:42.701Z,5.00
2022-11-08T09:42:29.592Z,6.28
2022-11-08T09:47:37.926Z,5.47
2022-11-08T09:52:42.006Z,3.90
2022-11-08T09:57:58.501Z,6.97
2022-11-08T10:03:01.699Z,6.03
2022-11-08T10:08:36.496Z,6.95
2022-11-08T10:14:00.858Z,5.75
2022-11-08T10:19:08.302Z,4.85
2022-11-08T10:24:20.529Z,3.75
2022-11-08T10:29:27.859Z,4.97
2022-11-08T10:34:39.593Z,4.20
2022-11-08T10:39:54.609Z,7.07
2022-11-08T10:44:56.144Z,7.50
2022-11-08T10:50:03.399Z,6.05
2022-11-08T10:55:23.233Z,4.60
2022-11-08T11:05:35.532Z,5.70
2022-11-08T11:10:41.363Z,5.03
2022-11-08T11:15:47.775Z,5.28
2022-11-08T11:21:05.883Z,7.50
2022-11-08T11:26:17.231Z,6.57
2022-11-08T11:31:18.700Z,6.65
2022-11-08T11:36:24.443Z,5.50
2022-11-08T11:41:36.620Z,4.82
2022-11-08T11:46:55.207Z,6.10
2022-11-08T11:51:58.043Z,5.13
2022-11-08T11:57:07.589Z,5.15
2022-11-08T12:02:36.939Z,5.57
2022-11-08T12:07:46.446Z,4.35
2022-11-08T12:13:09.347Z,4.35
2022-11-08T12:18:50.657Z,3.03
2022-11-08T12:24:15.440Z,5.25
2022-11-08T12:29:24.225Z,3.35
2022-11-08T12:34:49.391Z,3.50
2022-11-08T12:40:00.575Z,3.83
2022-11-08T12:45:34.152Z,3.40
2022-11-08T12:50:46.041Z,4.07
2022-11-08T12:55:48.554Z,4.25
2022-11-08T13:00:52.405Z,3.58
2022-11-08T13:06:08.004Z,6.75
2022-11-08T13:11:16.710Z,4.07
2022-11-08T13:16:24.287Z,3.90
2022-11-08T13:21:25.632Z,6.38
2022-11-08T13:26:28.328Z,2.90
2022-11-08T13:31:43.380Z,5.20
2022-11-08T13:36:51.452Z,5.90
2022-11-08T13:42:04.280Z,5.43
2022-11-08T13:47:34.561Z,3.17
2022-11-08T13:52:47.583Z,1.85
2022-11-08T13:58:00.910Z,3.35
2022-11-08T14:03:02.513Z,2.85
2022-11-08T14:08:16.137Z,4.32
2022-11-08T14:13:33.667Z,3.63
2022-11-08T14:18:39.120Z,4.03
2022-11-08T14:23:42.234Z,3.92
2022-11-08T14:28:46.696Z,6.32
2022-11-08T14:33:48.182Z,2.92
2022-11-08T14:39:03.064Z,5.00
2022-11-08T14:44:04.961Z,11.82
2022-11-08T14:49:15.731Z,9.35
2022-11-08T14:54:19.724Z,8.75
2022-11-08T14:59:23.778Z,8.18
2022-11-08T15:04:26.036Z,7.60
2022-11-08T15:09:31.445Z,9.23
2022-11-08T15:14:36.268Z,9.02
2022-11-08T15:19:46.085Z,7.97
2022-11-08T15:24:47.512Z,7.63
2022-11-08T15:29:51.339Z,7.28
2022-11-08T15:34:55.503Z,5.95
2022-11-08T15:40:07.436Z,6.32
2022-11-08T15:45:17.805Z,8.73
2022-11-08T15:50:24.904Z,9.23
2022-11-08T15:55:30.056Z,6.35
2022-11-08T16:00:36.336Z,10.02
2022-11-08T16:05:38.154Z,11.13
2022-11-08T16:10:45.998Z,6.60
2022-11-08T16:15:48.125Z,10.30
2022-11-08T16:20:49.615Z,7.50
2022-11-08T16:25:54.690Z,8.18
2022-11-08T16:30:56.983Z,9.90
2022-11-08T16:36:06.443Z,10.75
2022-11-08T16:41:07.896Z,11.07
2022-11-08T16:46:09.627Z,10.32
2022-11-08T16:51:18.742Z,12.98
2022-11-08T17:01:27.483Z,16.20
2022-11-08T17:06:29.020Z,11.25
2022-11-08T17:11:30.566Z,10.70
2022-11-08T17:16:32.365Z,14.32
2022-11-08T17:21:49.608Z,13.90
2022-11-08T17:26:51.066Z,26.75
2022-11-08T17:31:53.029Z,14.02
2022-11-08T17:36:54.493Z,12.15
2022-11-08T17:41:55.931Z,11.05
2022-11-08T17:46:57.459Z,19.00
2022-11-08T17:51:58.935Z,21.58
2022-11-08T17:57:00.775Z,17.08
2022-11-08T18:02:02.364Z,18.95
2022-11-08T18:07:04.049Z,15.27
2022-11-08T18:12:05.771Z,20.90
2022-11-08T18:17:07.276Z,18.85
2022-11-08T18:22:08.755Z,25.27
2022-11-08T18:27:10.190Z,25.40
2022-11-08T18:32:11.615Z,24.33
2022-11-08T18:37:13.058Z,24.73
2022-11-08T18:42:14.462Z,22.30
2022-11-08T18:47:15.917Z,23.55
2022-11-08T18:52:17.570Z,28.30
2022-11-08T18:57:19.814Z,24.75
2022-11-08T19:02:22.041Z,21.17
2022-11-08T19:07:24.297Z,26.50
2022-11-08T19:12:28.523Z,27.35
2022-11-08T19:17:31.827Z,24.88
2022-11-08T19:22:33.297Z,26.17
2022-11-08T19:27:34.718Z,29.42
2022-11-08T19:32:36.132Z,22.30
2022-11-08T19:37:37.569Z,30.13
2022-11-08T19:42:38.970Z,28.20
2022-11-08T19:47:40.424Z,22.27
2022-11-08T19:52:41.816Z,28.13
2022-11-08T19:57:43.248Z,29.00
2022-11-08T20:02:44.836Z,26.63
2022-11-08T20:07:47.032Z,27.02
2022-11-08T20:12:48.505Z,26.10
2022-11-08T20:17:49.937Z,25.80
2022-11-08T20:22:51.353Z,26.40
2022-11-08T20:27:52.825Z,27.10
2022-11-08T20:32:54.243Z,28.65
2022-11-08T20:37:58.554Z,28.17
2022-11-08T20:42:59.948Z,30.50
2022-11-08T20:48:02.878Z,26.80
2022-11-08T20:53:04.475Z,25.45
2022-11-08T20:58:05.981Z,26.77
2022-11-08T21:03:07.457Z,30.63
2022-11-08T21:08:57.831Z,34.60
2022-11-08T21:13:32.797Z,32.88
2022-11-08T21:18:35.887Z,29.85
2022-11-08T21:23:39.249Z,28.10
2022-11-08T21:28:41.248Z,31.90
2022-11-08T21:33:42.901Z,28.20
2022-11-08T21:38:44.483Z,30.60
2022-11-08T21:43:47.537Z,36.78
2022-11-08T21:48:56.872Z,36.50
2022-11-08T21:53:59.174Z,45.10
2022-11-08T21:59:01.505Z,35.25
2022-11-08T22:04:02.955Z,28.02
2022-11-08T22:09:04.503Z,30.85
2022-11-08T22:14:05.906Z,28.05
2022-11-08T22:19:07.801Z,23.83
2022-11-08T22:24:15.112Z,23.42
2022-11-08T22:29:17.192Z,22.67
2022-11-08T22:34:18.968Z,26.17
2022-11-08T22:39:23.081Z,30.88
2022-11-08T22:44:24.543Z,24.23
2022-11-08T22:49:25.996Z,22.58
2022-11-08T22:54:27.454Z,26.85
2022-11-08T22:59:28.880Z,24.65
2022-11-08T23:04:30.286Z,21.83
2022-11-08T23:09:31.691Z,24.85
2022-11-08T23:14:51.880Z,24.05
2022-11-08T23:20:11.839Z,27.33
2022-11-08T23:25:13.289Z,26.27
2022-11-08T23:30:35.566Z,26.13
2022-11-08T23:35:36.992Z,23.95
2022-11-08T23:40:58.685Z,26.95
2022-11-08T23:46:11.879Z,24.50
2022-11-08T23:51:13.275Z,26.38
2022-11-08T23:56:25.539Z,29.42
